CYLU

Kangiqsualujjuaq (Georges River) Airport

Kangiqsualujjuaq, Quebec, Canada
METAR CYLU 172100Z 31007KT 15SM BKN051 BKN057 OVC061 12/06 A2965 RMK SC5SC2SC1 LAST STFD OBS/NEXT 181200UTC SLP045
Observed Flight Rules
Jul-17 @ 21:00 UTC (2 hours ago) Visual Flight Rules
Wind Visibility Clouds
310° at 7 knots 15 miles
  • Broken at 5,100' AGL
  • Broken at 5,700' AGL
  • Overcast at 6,100' AGL
Temperatures Readings
Current 12°C / 54°F
Dewpoint 6°C / 43°F
Humidity 67%
Altimeter 29.65" Hg
Pressure 1004.5 hPa
Elevation 60
METAR CYLU 172100Z 31007KT 15SM BKN051 BKN057 OVC061 12/06 A2965 RMK SC5SC2SC1 LAST STFD OBS/NEXT 181200UTC SLP045
Observed Flight Rules
Jul-17 @ 21:00 UTC
(2 hours ago)
VFR
Wind Visibility
310° at 7 knots 15 miles
Clouds
  • Broken at 5,100' AGL
  • Broken at 5,700' AGL
  • Overcast at 6,100' AGL
Temperature Dewpoint
12°C / 54°F 6°C / 43°F
Humidity Altimeter Pressure
67% 29.65" Hg 1004.5 hPa